createdAt,value
2019-05-03T12:18:09.626Z,10.70
2019-05-03T12:19:29.999Z,10.60
2019-05-03T12:20:39.513Z,10.60
2019-05-03T12:21:54.023Z,10.50
2019-05-03T12:23:08.278Z,10.50
2019-05-03T12:24:22.515Z,10.50
2019-05-03T12:25:37.046Z,10.40
2019-05-03T12:26:50.824Z,10.40
2019-05-03T12:28:05.827Z,10.40
2019-05-03T12:29:19.505Z,10.40
2019-05-03T12:30:35.542Z,10.50
2019-05-03T12:31:49.035Z,10.60
2019-05-03T12:33:02.335Z,10.80
2019-05-03T12:34:15.957Z,10.80
2019-05-03T12:35:30.953Z,11.00
2019-05-03T12:36:45.236Z,11.00
2019-05-03T12:37:58.525Z,11.10
2019-05-03T12:39:24.132Z,11.10
2019-05-03T12:40:27.346Z,11.20
2019-05-03T12:41:40.612Z,11.10
2019-05-03T12:42:55.884Z,11.10
2019-05-03T12:44:09.126Z,11.00
2019-05-03T12:45:24.746Z,10.90
2019-05-03T12:46:38.212Z,10.90
2019-05-03T12:47:51.502Z,10.80
2019-05-03T12:49:05.219Z,10.70
2019-05-03T12:50:19.697Z,10.70
2019-05-03T12:51:34.539Z,10.70
2019-05-03T12:52:50.408Z,10.70
2019-05-03T12:54:04.836Z,10.70
2019-05-03T12:55:17.925Z,10.70
2019-05-03T12:56:32.895Z,10.70
2019-05-03T12:57:46.248Z,10.70
2019-05-03T12:59:01.935Z,10.70
2019-05-03T13:00:19.652Z,10.70
2019-05-03T13:01:45.329Z,10.60
2019-05-03T13:03:19.313Z,10.50
2019-05-03T13:04:34.233Z,10.40
2019-05-03T13:05:47.505Z,10.20
2019-05-03T13:07:11.838Z,10.20
2019-05-03T13:08:36.404Z,10.30
2019-05-03T13:09:49.746Z,10.30
2019-05-03T13:11:05.286Z,10.30
2019-05-03T13:12:20.441Z,10.30
2019-05-03T13:13:35.886Z,10.30
2019-05-03T13:14:48.876Z,10.20
2019-05-03T13:16:02.136Z,10.20
2019-05-03T13:17:17.641Z,10.20
2019-05-03T13:18:30.912Z,10.20
2019-05-03T13:19:45.174Z,10.30
2019-05-03T13:20:58.644Z,10.30
2019-05-03T13:22:12.003Z,10.30
2019-05-03T13:23:25.530Z,10.40
2019-05-03T13:24:39.797Z,10.40
2019-05-03T13:25:53.061Z,10.50
2019-05-03T13:27:06.334Z,10.60
2019-05-03T13:28:19.692Z,10.70
2019-05-03T13:29:34.830Z,10.80
2019-05-03T13:30:47.944Z,10.90
2019-05-03T13:32:02.342Z,10.90
2019-05-03T13:33:15.733Z,10.90
2019-05-03T13:34:29.005Z,10.90
2019-05-03T13:35:44.449Z,10.90
2019-05-03T13:36:57.304Z,11.00
2019-05-03T13:38:10.572Z,11.00
2019-05-03T13:39:26.345Z,10.90
2019-05-03T13:40:40.257Z,11.00
2019-05-03T13:41:54.960Z,10.90
2019-05-03T13:43:08.303Z,10.90
2019-05-03T13:44:21.642Z,10.90
2019-05-03T13:45:36.537Z,10.90
2019-05-03T13:46:49.806Z,10.80
2019-05-03T13:48:05.024Z,10.80
2019-05-03T13:49:18.110Z,10.90
2019-05-03T13:50:31.370Z,10.90
2019-05-03T13:51:45.248Z,10.80
2019-05-03T13:52:58.554Z,10.80
2019-05-03T13:54:11.822Z,10.80
2019-05-03T13:55:25.091Z,10.70
2019-05-03T13:56:38.353Z,10.70
2019-05-03T13:57:51.647Z,10.80
2019-05-03T13:59:18.279Z,10.80
2019-05-03T14:00:19.900Z,10.80
2019-05-03T14:01:33.169Z,10.70
2019-05-03T14:02:46.455Z,10.70
2019-05-03T14:03:59.729Z,10.70
2019-05-03T14:05:12.993Z,10.60
2019-05-03T14:06:26.310Z,10.60
2019-05-03T14:07:39.630Z,10.50
2019-05-03T14:08:54.804Z,10.50
2019-05-03T14:10:07.956Z,10.40
2019-05-03T14:11:21.215Z,10.40
2019-05-03T14:12:35.203Z,10.30
2019-05-03T14:13:48.516Z,10.30
2019-05-03T14:15:01.803Z,10.30
2019-05-03T14:16:15.088Z,10.30
